sensor_id;sensor_type;location;lat;lon;timestamp;P1;durP1;ratioP1;P2;durP2;ratioP2
3189;SDS011;1606;51.946;10.558;2022-12-07T00:01:25;16.43;;;8.70;;
3189;SDS011;1606;51.946;10.558;2022-12-07T00:03:54;18.73;;;9.00;;
3189;SDS011;1606;51.946;10.558;2022-12-07T00:06:30;16.83;;;8.80;;
3189;SDS011;1606;51.946;10.558;2022-12-07T00:08:59;17.47;;;8.70;;
3189;SDS011;1606;51.946;10.558;2022-12-07T00:11:27;15.97;;;8.07;;
3189;SDS011;1606;51.946;10.558;2022-12-07T00:13:56;16.27;;;8.27;;
3189;SDS011;1606;51.946;10.558;2022-12-07T00:16:26;15.63;;;7.60;;
3189;SDS011;1606;51.946;10.558;2022-12-07T00:18:55;15.07;;;8.30;;
3189;SDS011;1606;51.946;10.558;2022-12-07T00:21:25;16.27;;;8.87;;
3189;SDS011;1606;51.946;10.558;2022-12-07T00:23:54;17.03;;;8.97;;
3189;SDS011;1606;51.946;10.558;2022-12-07T00:26:25;16.33;;;7.57;;
3189;SDS011;1606;51.946;10.558;2022-12-07T00:28:55;16.67;;;8.20;;
3189;SDS011;1606;51.946;10.558;2022-12-07T00:31:24;15.37;;;7.63;;
3189;SDS011;1606;51.946;10.558;2022-12-07T00:33:54;17.07;;;7.90;;
3189;SDS011;1606;51.946;10.558;2022-12-07T00:36:23;14.33;;;7.90;;
3189;SDS011;1606;51.946;10.558;2022-12-07T00:38:52;16.40;;;8.57;;
3189;SDS011;1606;51.946;10.558;2022-12-07T00:41:21;13.63;;;8.10;;
3189;SDS011;1606;51.946;10.558;2022-12-07T00:43:52;16.47;;;8.40;;
3189;SDS011;1606;51.946;10.558;2022-12-07T00:46:21;16.23;;;8.50;;
3189;SDS011;1606;51.946;10.558;2022-12-07T00:48:50;16.20;;;7.97;;
3189;SDS011;1606;51.946;10.558;2022-12-07T00:51:21;17.30;;;8.90;;
3189;SDS011;1606;51.946;10.558;2022-12-07T00:53:50;18.47;;;8.80;;
3189;SDS011;1606;51.946;10.558;2022-12-07T00:56:19;17.20;;;9.43;;
3189;SDS011;1606;51.946;10.558;2022-12-07T00:58:53;16.67;;;8.70;;
3189;SDS011;1606;51.946;10.558;2022-12-07T01:01:22;17.63;;;9.20;;
3189;SDS011;1606;51.946;10.558;2022-12-07T01:03:51;16.70;;;9.63;;
3189;SDS011;1606;51.946;10.558;2022-12-07T01:06:24;17.63;;;8.63;;
3189;SDS011;1606;51.946;10.558;2022-12-07T01:08:53;17.97;;;9.00;;
3189;SDS011;1606;51.946;10.558;2022-12-07T01:11:22;19.90;;;9.00;;
3189;SDS011;1606;51.946;10.558;2022-12-07T01:13:53;17.50;;;9.80;;
3189;SDS011;1606;51.946;10.558;2022-12-07T01:16:23;15.90;;;9.10;;
3189;SDS011;1606;51.946;10.558;2022-12-07T01:18:53;15.67;;;8.70;;
3189;SDS011;1606;51.946;10.558;2022-12-07T01:21:23;17.40;;;8.73;;
3189;SDS011;1606;51.946;10.558;2022-12-07T01:23:51;15.23;;;8.80;;
3189;SDS011;1606;51.946;10.558;2022-12-07T01:26:20;15.17;;;8.40;;
3189;SDS011;1606;51.946;10.558;2022-12-07T01:28:49;16.80;;;9.47;;
3189;SDS011;1606;51.946;10.558;2022-12-07T01:31:19;13.60;;;7.60;;
3189;SDS011;1606;51.946;10.558;2022-12-07T01:33:49;16.43;;;9.67;;
3189;SDS011;1606;51.946;10.558;2022-12-07T01:36:19;15.10;;;8.00;;
3189;SDS011;1606;51.946;10.558;2022-12-07T01:38:49;12.83;;;7.23;;
3189;SDS011;1606;51.946;10.558;2022-12-07T01:41:19;13.50;;;6.50;;
3189;SDS011;1606;51.946;10.558;2022-12-07T01:46:41;10.17;;;5.53;;
3189;SDS011;1606;51.946;10.558;2022-12-07T01:49:12;14.17;;;6.93;;
3189;SDS011;1606;51.946;10.558;2022-12-07T01:51:45;15.30;;;7.63;;
3189;SDS011;1606;51.946;10.558;2022-12-07T01:54:14;12.30;;;6.20;;
3189;SDS011;1606;51.946;10.558;2022-12-07T01:56:47;10.53;;;5.90;;
3189;SDS011;1606;51.946;10.558;2022-12-07T01:59:18;12.13;;;6.53;;
3189;SDS011;1606;51.946;10.558;2022-12-07T02:01:52;12.10;;;6.97;;
3189;SDS011;1606;51.946;10.558;2022-12-07T02:04:21;12.97;;;6.33;;
3189;SDS011;1606;51.946;10.558;2022-12-07T02:06:50;11.07;;;6.00;;
3189;SDS011;1606;51.946;10.558;2022-12-07T02:09:19;11.27;;;5.90;;
3189;SDS011;1606;51.946;10.558;2022-12-07T02:11:47;15.10;;;7.33;;
3189;SDS011;1606;51.946;10.558;2022-12-07T02:14:15;13.60;;;7.23;;
3189;SDS011;1606;51.946;10.558;2022-12-07T02:16:46;13.60;;;7.63;;
3189;SDS011;1606;51.946;10.558;2022-12-07T02:19:33;12.73;;;7.50;;
3189;SDS011;1606;51.946;10.558;2022-12-07T02:22:34;11.60;;;6.47;;
3189;SDS011;1606;51.946;10.558;2022-12-07T02:25:32;12.87;;;6.83;;
3189;SDS011;1606;51.946;10.558;2022-12-07T02:28:12;13.90;;;7.00;;
3189;SDS011;1606;51.946;10.558;2022-12-07T02:30:50;15.03;;;8.17;;
3189;SDS011;1606;51.946;10.558;2022-12-07T02:33:22;14.30;;;7.83;;
3189;SDS011;1606;51.946;10.558;2022-12-07T02:35:55;13.77;;;7.43;;
3189;SDS011;1606;51.946;10.558;2022-12-07T02:38:28;13.50;;;7.63;;
3189;SDS011;1606;51.946;10.558;2022-12-07T02:41:02;12.77;;;6.97;;
3189;SDS011;1606;51.946;10.558;2022-12-07T02:43:35;12.10;;;6.77;;
3189;SDS011;1606;51.946;10.558;2022-12-07T02:46:09;13.57;;;7.50;;
3189;SDS011;1606;51.946;10.558;2022-12-07T02:48:40;12.33;;;6.67;;
3189;SDS011;1606;51.946;10.558;2022-12-07T02:51:10;12.80;;;6.93;;
3189;SDS011;1606;51.946;10.558;2022-12-07T02:53:39;11.80;;;6.50;;
3189;SDS011;1606;51.946;10.558;2022-12-07T02:56:09;12.37;;;7.87;;
3189;SDS011;1606;51.946;10.558;2022-12-07T02:58:50;13.63;;;7.30;;
3189;SDS011;1606;51.946;10.558;2022-12-07T03:01:30;11.90;;;6.60;;
3189;SDS011;1606;51.946;10.558;2022-12-07T03:04:09;13.53;;;7.77;;
3189;SDS011;1606;51.946;10.558;2022-12-07T03:06:48;13.80;;;7.87;;
3189;SDS011;1606;51.946;10.558;2022-12-07T03:09:22;14.10;;;7.93;;
3189;SDS011;1606;51.946;10.558;2022-12-07T03:12:00;12.90;;;6.63;;
3189;SDS011;1606;51.946;10.558;2022-12-07T03:14:34;13.87;;;6.93;;
3189;SDS011;1606;51.946;10.558;2022-12-07T03:17:07;13.30;;;7.20;;
3189;SDS011;1606;51.946;10.558;2022-12-07T03:19:40;12.37;;;6.93;;
3189;SDS011;1606;51.946;10.558;2022-12-07T03:22:09;12.70;;;6.43;;
3189;SDS011;1606;51.946;10.558;2022-12-07T03:24:42;11.93;;;6.33;;
3189;SDS011;1606;51.946;10.558;2022-12-07T03:27:14;12.27;;;6.70;;
3189;SDS011;1606;51.946;10.558;2022-12-07T03:29:47;12.27;;;5.90;;
3189;SDS011;1606;51.946;10.558;2022-12-07T03:32:23;11.30;;;5.90;;
3189;SDS011;1606;51.946;10.558;2022-12-07T03:34:56;12.03;;;6.00;;
3189;SDS011;1606;51.946;10.558;2022-12-07T03:37:29;11.83;;;6.00;;
3189;SDS011;1606;51.946;10.558;2022-12-07T03:40:02;12.90;;;6.40;;
3189;SDS011;1606;51.946;10.558;2022-12-07T03:42:35;14.33;;;7.00;;
3189;SDS011;1606;51.946;10.558;2022-12-07T03:45:03;15.63;;;7.90;;
3189;SDS011;1606;51.946;10.558;2022-12-07T03:47:34;16.67;;;8.50;;
3189;SDS011;1606;51.946;10.558;2022-12-07T03:50:09;14.77;;;8.10;;
3189;SDS011;1606;51.946;10.558;2022-12-07T03:52:42;15.07;;;8.67;;
3189;SDS011;1606;51.946;10.558;2022-12-07T03:55:13;15.53;;;8.30;;
3189;SDS011;1606;51.946;10.558;2022-12-07T03:57:46;17.03;;;9.53;;
3189;SDS011;1606;51.946;10.558;2022-12-07T04:00:16;19.60;;;10.30;;
3189;SDS011;1606;51.946;10.558;2022-12-07T04:02:47;17.00;;;8.67;;
3189;SDS011;1606;51.946;10.558;2022-12-07T04:05:18;15.90;;;9.60;;
3189;SDS011;1606;51.946;10.558;2022-12-07T04:07:46;18.90;;;8.90;;
3189;SDS011;1606;51.946;10.558;2022-12-07T04:10:14;15.37;;;8.93;;
3189;SDS011;1606;51.946;10.558;2022-12-07T04:12:42;17.90;;;8.90;;
3189;SDS011;1606;51.946;10.558;2022-12-07T04:15:10;15.90;;;8.43;;
3189;SDS011;1606;51.946;10.558;2022-12-07T04:17:38;15.33;;;8.40;;
3189;SDS011;1606;51.946;10.558;2022-12-07T04:20:08;13.33;;;7.83;;
3189;SDS011;1606;51.946;10.558;2022-12-07T04:22:36;18.00;;;8.03;;
3189;SDS011;1606;51.946;10.558;2022-12-07T04:25:05;16.97;;;8.90;;
3189;SDS011;1606;51.946;10.558;2022-12-07T04:27:33;13.77;;;7.57;;
3189;SDS011;1606;51.946;10.558;2022-12-07T04:30:01;18.97;;;7.90;;
3189;SDS011;1606;51.946;10.558;2022-12-07T04:32:30;14.73;;;7.77;;
3189;SDS011;1606;51.946;10.558;2022-12-07T04:34:58;14.50;;;7.07;;
3189;SDS011;1606;51.946;10.558;2022-12-07T04:37:27;15.00;;;7.27;;
3189;SDS011;1606;51.946;10.558;2022-12-07T04:39:55;17.00;;;7.40;;
3189;SDS011;1606;51.946;10.558;2022-12-07T04:42:23;16.00;;;7.00;;
3189;SDS011;1606;51.946;10.558;2022-12-07T04:44:51;16.47;;;7.90;;
3189;SDS011;1606;51.946;10.558;2022-12-07T04:47:18;17.63;;;8.00;;
3189;SDS011;1606;51.946;10.558;2022-12-07T04:49:46;14.50;;;7.90;;
3189;SDS011;1606;51.946;10.558;2022-12-07T04:52:14;18.70;;;7.70;;
3189;SDS011;1606;51.946;10.558;2022-12-07T04:54:43;13.97;;;6.13;;
3189;SDS011;1606;51.946;10.558;2022-12-07T04:57:11;12.43;;;7.30;;
3189;SDS011;1606;51.946;10.558;2022-12-07T04:59:39;13.50;;;6.70;;
3189;SDS011;1606;51.946;10.558;2022-12-07T05:02:11;16.00;;;7.33;;
3189;SDS011;1606;51.946;10.558;2022-12-07T05:04:39;13.50;;;6.10;;
3189;SDS011;1606;51.946;10.558;2022-12-07T05:07:07;11.50;;;6.30;;
3189;SDS011;1606;51.946;10.558;2022-12-07T05:09:35;13.37;;;6.40;;
3189;SDS011;1606;51.946;10.558;2022-12-07T05:12:04;16.23;;;6.40;;
3189;SDS011;1606;51.946;10.558;2022-12-07T05:14:32;14.47;;;6.70;;
3189;SDS011;1606;51.946;10.558;2022-12-07T05:17:00;14.33;;;6.73;;
3189;SDS011;1606;51.946;10.558;2022-12-07T05:19:27;18.90;;;7.03;;
3189;SDS011;1606;51.946;10.558;2022-12-07T05:21:55;13.10;;;6.47;;
3189;SDS011;1606;51.946;10.558;2022-12-07T05:24:23;15.60;;;6.70;;
3189;SDS011;1606;51.946;10.558;2022-12-07T05:26:51;15.37;;;7.57;;
3189;SDS011;1606;51.946;10.558;2022-12-07T05:29:21;13.40;;;6.80;;
3189;SDS011;1606;51.946;10.558;2022-12-07T05:31:49;16.93;;;7.70;;
3189;SDS011;1606;51.946;10.558;2022-12-07T05:34:17;18.50;;;7.23;;
3189;SDS011;1606;51.946;10.558;2022-12-07T05:36:54;13.63;;;5.60;;
3189;SDS011;1606;51.946;10.558;2022-12-07T05:39:22;16.80;;;6.60;;
3189;SDS011;1606;51.946;10.558;2022-12-07T05:41:49;14.17;;;7.00;;
3189;SDS011;1606;51.946;10.558;2022-12-07T05:44:48;22.40;;;8.50;;
3189;SDS011;1606;51.946;10.558;2022-12-07T05:47:16;15.30;;;6.83;;
3189;SDS011;1606;51.946;10.558;2022-12-07T05:49:43;14.07;;;7.00;;
3189;SDS011;1606;51.946;10.558;2022-12-07T05:52:11;16.47;;;7.20;;
3189;SDS011;1606;51.946;10.558;2022-12-07T05:54:39;14.87;;;6.57;;
3189;SDS011;1606;51.946;10.558;2022-12-07T05:57:07;19.23;;;7.70;;
3189;SDS011;1606;51.946;10.558;2022-12-07T05:59:35;20.40;;;7.67;;
3189;SDS011;1606;51.946;10.558;2022-12-07T06:02:05;18.43;;;7.83;;
3189;SDS011;1606;51.946;10.558;2022-12-07T06:04:36;20.10;;;9.57;;
3189;SDS011;1606;51.946;10.558;2022-12-07T06:07:05;19.93;;;8.83;;
3189;SDS011;1606;51.946;10.558;2022-12-07T06:09:33;26.90;;;13.80;;
3189;SDS011;1606;51.946;10.558;2022-12-07T06:12:02;28.33;;;11.77;;
3189;SDS011;1606;51.946;10.558;2022-12-07T06:14:48;44.27;;;15.57;;
3189;SDS011;1606;51.946;10.558;2022-12-07T06:17:18;21.90;;;11.47;;
3189;SDS011;1606;51.946;10.558;2022-12-07T06:19:45;20.17;;;7.80;;
3189;SDS011;1606;51.946;10.558;2022-12-07T06:22:13;21.37;;;7.90;;
3189;SDS011;1606;51.946;10.558;2022-12-07T06:24:42;15.93;;;6.43;;
3189;SDS011;1606;51.946;10.558;2022-12-07T06:27:11;15.03;;;6.70;;
3189;SDS011;1606;51.946;10.558;2022-12-07T06:29:39;18.43;;;6.97;;
3189;SDS011;1606;51.946;10.558;2022-12-07T06:32:07;18.33;;;7.40;;
3189;SDS011;1606;51.946;10.558;2022-12-07T06:34:36;14.57;;;6.30;;
3189;SDS011;1606;51.946;10.558;2022-12-07T06:37:04;14.03;;;6.07;;
3189;SDS011;1606;51.946;10.558;2022-12-07T06:39:32;13.73;;;6.13;;
3189;SDS011;1606;51.946;10.558;2022-12-07T06:42:00;15.07;;;6.43;;
3189;SDS011;1606;51.946;10.558;2022-12-07T06:44:28;16.37;;;6.83;;
3189;SDS011;1606;51.946;10.558;2022-12-07T06:46:56;17.07;;;5.47;;
3189;SDS011;1606;51.946;10.558;2022-12-07T06:49:45;16.30;;;5.97;;
3189;SDS011;1606;51.946;10.558;2022-12-07T06:52:13;24.77;;;7.20;;
3189;SDS011;1606;51.946;10.558;2022-12-07T06:54:41;14.10;;;6.00;;
3189;SDS011;1606;51.946;10.558;2022-12-07T06:57:08;17.80;;;7.50;;
3189;SDS011;1606;51.946;10.558;2022-12-07T06:59:36;20.20;;;6.57;;
3189;SDS011;1606;51.946;10.558;2022-12-07T07:02:04;16.70;;;7.30;;
3189;SDS011;1606;51.946;10.558;2022-12-07T07:04:32;22.87;;;7.27;;
3189;SDS011;1606;51.946;10.558;2022-12-07T07:07:04;23.27;;;6.53;;
3189;SDS011;1606;51.946;10.558;2022-12-07T07:09:32;18.40;;;7.50;;
3189;SDS011;1606;51.946;10.558;2022-12-07T07:12:00;17.27;;;6.87;;
3189;SDS011;1606;51.946;10.558;2022-12-07T07:14:27;18.70;;;6.87;;
3189;SDS011;1606;51.946;10.558;2022-12-07T07:16:55;20.50;;;7.10;;
3189;SDS011;1606;51.946;10.558;2022-12-07T07:19:23;17.40;;;7.73;;
3189;SDS011;1606;51.946;10.558;2022-12-07T07:21:51;15.73;;;6.57;;
3189;SDS011;1606;51.946;10.558;2022-12-07T07:24:20;14.23;;;6.73;;
3189;SDS011;1606;51.946;10.558;2022-12-07T07:26:48;21.13;;;7.50;;
3189;SDS011;1606;51.946;10.558;2022-12-07T07:29:16;23.87;;;8.37;;
3189;SDS011;1606;51.946;10.558;2022-12-07T07:31:44;14.10;;;6.70;;
3189;SDS011;1606;51.946;10.558;2022-12-07T07:34:12;11.93;;;5.43;;
3189;SDS011;1606;51.946;10.558;2022-12-07T07:36:40;13.77;;;6.00;;
3189;SDS011;1606;51.946;10.558;2022-12-07T07:39:09;16.57;;;5.80;;
3189;SDS011;1606;51.946;10.558;2022-12-07T07:41:40;18.70;;;7.00;;
3189;SDS011;1606;51.946;10.558;2022-12-07T07:44:07;14.23;;;6.47;;
3189;SDS011;1606;51.946;10.558;2022-12-07T07:46:36;12.33;;;6.67;;
3189;SDS011;1606;51.946;10.558;2022-12-07T07:49:04;15.47;;;6.97;;
3189;SDS011;1606;51.946;10.558;2022-12-07T07:51:32;16.53;;;7.30;;
3189;SDS011;1606;51.946;10.558;2022-12-07T07:54:00;11.90;;;5.60;;
3189;SDS011;1606;51.946;10.558;2022-12-07T07:56:28;13.07;;;5.30;;
3189;SDS011;1606;51.946;10.558;2022-12-07T07:58:57;13.67;;;6.97;;
3189;SDS011;1606;51.946;10.558;2022-12-07T08:01:25;13.07;;;4.80;;
3189;SDS011;1606;51.946;10.558;2022-12-07T08:03:53;9.93;;;4.83;;
3189;SDS011;1606;51.946;10.558;2022-12-07T08:06:21;12.30;;;6.50;;
3189;SDS011;1606;51.946;10.558;2022-12-07T08:08:55;13.17;;;5.27;;
3189;SDS011;1606;51.946;10.558;2022-12-07T08:11:24;14.30;;;5.97;;
3189;SDS011;1606;51.946;10.558;2022-12-07T08:13:52;14.63;;;5.00;;
3189;SDS011;1606;51.946;10.558;2022-12-07T08:16:21;10.80;;;5.17;;
3189;SDS011;1606;51.946;10.558;2022-12-07T08:18:49;12.40;;;5.10;;
3189;SDS011;1606;51.946;10.558;2022-12-07T08:21:17;14.60;;;5.07;;
3189;SDS011;1606;51.946;10.558;2022-12-07T08:23:45;9.60;;;3.83;;
3189;SDS011;1606;51.946;10.558;2022-12-07T08:26:13;12.47;;;5.27;;
3189;SDS011;1606;51.946;10.558;2022-12-07T08:28:42;8.97;;;4.30;;
3189;SDS011;1606;51.946;10.558;2022-12-07T08:31:12;10.83;;;5.00;;
3189;SDS011;1606;51.946;10.558;2022-12-07T08:33:43;11.47;;;4.97;;
3189;SDS011;1606;51.946;10.558;2022-12-07T08:36:12;10.67;;;3.63;;
3189;SDS011;1606;51.946;10.558;2022-12-07T08:38:41;10.17;;;4.47;;
3189;SDS011;1606;51.946;10.558;2022-12-07T08:41:29;9.40;;;4.13;;
3189;SDS011;1606;51.946;10.558;2022-12-07T08:43:57;11.97;;;5.03;;
3189;SDS011;1606;51.946;10.558;2022-12-07T08:46:25;11.03;;;4.70;;
3189;SDS011;1606;51.946;10.558;2022-12-07T08:49:03;13.13;;;4.67;;
3189;SDS011;1606;51.946;10.558;2022-12-07T08:51:33;13.93;;;7.33;;
3189;SDS011;1606;51.946;10.558;2022-12-07T08:54:03;14.10;;;4.30;;
3189;SDS011;1606;51.946;10.558;2022-12-07T08:56:34;9.73;;;3.93;;
3189;SDS011;1606;51.946;10.558;2022-12-07T08:59:02;12.30;;;5.10;;
3189;SDS011;1606;51.946;10.558;2022-12-07T09:01:31;9.50;;;4.30;;
3189;SDS011;1606;51.946;10.558;2022-12-07T09:03:59;10.53;;;4.53;;
3189;SDS011;1606;51.946;10.558;2022-12-07T09:06:28;12.77;;;5.23;;
3189;SDS011;1606;51.946;10.558;2022-12-07T09:08:57;11.83;;;4.20;;
3189;SDS011;1606;51.946;10.558;2022-12-07T09:11:27;11.30;;;4.17;;
3189;SDS011;1606;51.946;10.558;2022-12-07T09:13:56;12.97;;;3.33;;
3189;SDS011;1606;51.946;10.558;2022-12-07T09:16:23;13.27;;;3.77;;
3189;SDS011;1606;51.946;10.558;2022-12-07T09:18:51;10.47;;;3.93;;
3189;SDS011;1606;51.946;10.558;2022-12-07T09:21:19;10.30;;;3.90;;
3189;SDS011;1606;51.946;10.558;2022-12-07T09:23:48;9.80;;;3.97;;
3189;SDS011;1606;51.946;10.558;2022-12-07T09:26:16;9.37;;;3.53;;
3189;SDS011;1606;51.946;10.558;2022-12-07T09:28:44;12.13;;;3.80;;
3189;SDS011;1606;51.946;10.558;2022-12-07T09:31:12;9.13;;;3.47;;
3189;SDS011;1606;51.946;10.558;2022-12-07T09:33:52;10.00;;;3.43;;
3189;SDS011;1606;51.946;10.558;2022-12-07T09:36:21;8.27;;;3.40;;
3189;SDS011;1606;51.946;10.558;2022-12-07T09:38:50;12.43;;;4.23;;
3189;SDS011;1606;51.946;10.558;2022-12-07T09:41:18;12.80;;;4.27;;
3189;SDS011;1606;51.946;10.558;2022-12-07T09:43:47;16.80;;;3.50;;
3189;SDS011;1606;51.946;10.558;2022-12-07T09:46:15;9.87;;;3.07;;
3189;SDS011;1606;51.946;10.558;2022-12-07T09:48:45;7.53;;;3.10;;
3189;SDS011;1606;51.946;10.558;2022-12-07T09:51:15;9.93;;;4.30;;
3189;SDS011;1606;51.946;10.558;2022-12-07T09:53:51;10.93;;;3.30;;
3189;SDS011;1606;51.946;10.558;2022-12-07T09:56:20;13.03;;;4.03;;
3189;SDS011;1606;51.946;10.558;2022-12-07T09:58:49;13.50;;;2.97;;
3189;SDS011;1606;51.946;10.558;2022-12-07T10:01:21;8.50;;;3.80;;
3189;SDS011;1606;51.946;10.558;2022-12-07T10:03:50;10.13;;;2.97;;
3189;SDS011;1606;51.946;10.558;2022-12-07T10:06:20;11.50;;;3.23;;
3189;SDS011;1606;51.946;10.558;2022-12-07T10:08:48;10.70;;;3.43;;
3189;SDS011;1606;51.946;10.558;2022-12-07T10:11:17;9.93;;;3.33;;
3189;SDS011;1606;51.946;10.558;2022-12-07T10:13:46;7.60;;;2.70;;
3189;SDS011;1606;51.946;10.558;2022-12-07T10:16:31;11.63;;;2.53;;
3189;SDS011;1606;51.946;10.558;2022-12-07T10:19:17;17.50;;;3.03;;
3189;SDS011;1606;51.946;10.558;2022-12-07T10:22:00;7.60;;;2.87;;
3189;SDS011;1606;51.946;10.558;2022-12-07T10:24:36;14.63;;;3.73;;
3189;SDS011;1606;51.946;10.558;2022-12-07T10:27:09;11.40;;;3.03;;
3189;SDS011;1606;51.946;10.558;2022-12-07T10:29:49;10.30;;;3.13;;
3189;SDS011;1606;51.946;10.558;2022-12-07T10:32:27;8.20;;;2.80;;
3189;SDS011;1606;51.946;10.558;2022-12-07T10:37:48;9.60;;;2.93;;
3189;SDS011;1606;51.946;10.558;2022-12-07T10:40:30;10.47;;;4.03;;
3189;SDS011;1606;51.946;10.558;2022-12-07T10:43:02;8.50;;;3.23;;
3189;SDS011;1606;51.946;10.558;2022-12-07T10:45:32;8.27;;;3.17;;
3189;SDS011;1606;51.946;10.558;2022-12-07T10:48:23;9.47;;;2.87;;
3189;SDS011;1606;51.946;10.558;2022-12-07T10:51:02;9.27;;;3.07;;
3189;SDS011;1606;51.946;10.558;2022-12-07T10:53:40;7.03;;;2.40;;
3189;SDS011;1606;51.946;10.558;2022-12-07T10:56:22;8.77;;;3.03;;
3189;SDS011;1606;51.946;10.558;2022-12-07T10:59:19;15.93;;;3.53;;
3189;SDS011;1606;51.946;10.558;2022-12-07T11:02:09;14.63;;;2.27;;
3189;SDS011;1606;51.946;10.558;2022-12-07T11:04:51;7.30;;;2.77;;
3189;SDS011;1606;51.946;10.558;2022-12-07T11:07:34;7.40;;;2.20;;
3189;SDS011;1606;51.946;10.558;2022-12-07T11:10:11;8.43;;;2.30;;
3189;SDS011;1606;51.946;10.558;2022-12-07T11:12:49;10.23;;;2.50;;
3189;SDS011;1606;51.946;10.558;2022-12-07T11:15:31;7.07;;;2.33;;
3189;SDS011;1606;51.946;10.558;2022-12-07T11:18:07;8.23;;;2.23;;
3189;SDS011;1606;51.946;10.558;2022-12-07T11:20:43;8.00;;;2.57;;
3189;SDS011;1606;51.946;10.558;2022-12-07T11:23:18;12.30;;;2.40;;
3189;SDS011;1606;51.946;10.558;2022-12-07T11:25:58;8.60;;;2.77;;
3189;SDS011;1606;51.946;10.558;2022-12-07T11:28:37;10.37;;;2.90;;
3189;SDS011;1606;51.946;10.558;2022-12-07T11:31:21;6.90;;;2.70;;
3189;SDS011;1606;51.946;10.558;2022-12-07T11:33:57;7.47;;;2.47;;
3189;SDS011;1606;51.946;10.558;2022-12-07T11:36:35;6.50;;;1.97;;
3189;SDS011;1606;51.946;10.558;2022-12-07T11:39:10;14.53;;;2.70;;
3189;SDS011;1606;51.946;10.558;2022-12-07T11:41:48;9.23;;;2.60;;
3189;SDS011;1606;51.946;10.558;2022-12-07T11:44:24;12.80;;;2.63;;
3189;SDS011;1606;51.946;10.558;2022-12-07T11:46:59;7.17;;;2.00;;
3189;SDS011;1606;51.946;10.558;2022-12-07T11:49:37;8.43;;;2.00;;
3189;SDS011;1606;51.946;10.558;2022-12-07T11:52:12;7.30;;;2.17;;
3189;SDS011;1606;51.946;10.558;2022-12-07T11:54:45;7.60;;;2.20;;
3189;SDS011;1606;51.946;10.558;2022-12-07T11:57:17;7.00;;;2.10;;
3189;SDS011;1606;51.946;10.558;2022-12-07T11:59:52;8.83;;;2.33;;
3189;SDS011;1606;51.946;10.558;2022-12-07T12:02:29;6.13;;;1.77;;
3189;SDS011;1606;51.946;10.558;2022-12-07T12:05:05;6.80;;;2.17;;
3189;SDS011;1606;51.946;10.558;2022-12-07T12:07:42;7.20;;;2.60;;
3189;SDS011;1606;51.946;10.558;2022-12-07T12:10:36;6.77;;;1.80;;
3189;SDS011;1606;51.946;10.558;2022-12-07T12:13:25;5.73;;;1.80;;
3189;SDS011;1606;51.946;10.558;2022-12-07T12:17:01;9.03;;;2.60;;
3189;SDS011;1606;51.946;10.558;2022-12-07T12:19:56;6.10;;;1.90;;
3189;SDS011;1606;51.946;10.558;2022-12-07T12:22:32;6.20;;;1.83;;
3189;SDS011;1606;51.946;10.558;2022-12-07T12:25:04;7.03;;;2.17;;
3189;SDS011;1606;51.946;10.558;2022-12-07T12:27:35;6.50;;;2.27;;
3189;SDS011;1606;51.946;10.558;2022-12-07T12:30:05;8.50;;;2.40;;
3189;SDS011;1606;51.946;10.558;2022-12-07T12:32:50;7.23;;;2.80;;
3189;SDS011;1606;51.946;10.558;2022-12-07T12:35:28;8.00;;;2.80;;
3189;SDS011;1606;51.946;10.558;2022-12-07T12:40:56;8.20;;;3.20;;
3189;SDS011;1606;51.946;10.558;2022-12-07T12:43:44;7.17;;;2.63;;
3189;SDS011;1606;51.946;10.558;2022-12-07T12:55:18;6.53;;;2.43;;
3189;SDS011;1606;51.946;10.558;2022-12-07T13:10:22;8.03;;;1.83;;
3189;SDS011;1606;51.946;10.558;2022-12-07T13:12:57;11.27;;;2.10;;
3189;SDS011;1606;51.946;10.558;2022-12-07T13:15:33;7.10;;;2.00;;
3189;SDS011;1606;51.946;10.558;2022-12-07T13:18:03;10.70;;;2.27;;
3189;SDS011;1606;51.946;10.558;2022-12-07T13:20:50;5.60;;;1.30;;
3189;SDS011;1606;51.946;10.558;2022-12-07T13:23:23;5.37;;;1.20;;
3189;SDS011;1606;51.946;10.558;2022-12-07T13:25:58;8.17;;;1.30;;
3189;SDS011;1606;51.946;10.558;2022-12-07T13:28:44;7.13;;;1.70;;
3189;SDS011;1606;51.946;10.558;2022-12-07T13:31:19;6.73;;;1.70;;
3189;SDS011;1606;51.946;10.558;2022-12-07T13:33:52;8.53;;;1.97;;
3189;SDS011;1606;51.946;10.558;2022-12-07T13:36:24;7.77;;;2.30;;
3189;SDS011;1606;51.946;10.558;2022-12-07T13:38:54;6.10;;;2.20;;
3189;SDS011;1606;51.946;10.558;2022-12-07T13:41:25;9.40;;;2.90;;
3189;SDS011;1606;51.946;10.558;2022-12-07T13:43:59;8.67;;;2.70;;
3189;SDS011;1606;51.946;10.558;2022-12-07T13:46:43;12.03;;;2.73;;
3189;SDS011;1606;51.946;10.558;2022-12-07T13:49:17;9.70;;;3.13;;
3189;SDS011;1606;51.946;10.558;2022-12-07T13:51:47;8.07;;;2.40;;
3189;SDS011;1606;51.946;10.558;2022-12-07T13:54:15;7.60;;;2.57;;
3189;SDS011;1606;51.946;10.558;2022-12-07T13:56:46;15.80;;;2.40;;
3189;SDS011;1606;51.946;10.558;2022-12-07T13:59:16;11.77;;;2.80;;
3189;SDS011;1606;51.946;10.558;2022-12-07T14:01:46;9.57;;;3.03;;
3189;SDS011;1606;51.946;10.558;2022-12-07T14:04:16;5.90;;;1.93;;
3189;SDS011;1606;51.946;10.558;2022-12-07T14:06:56;8.10;;;1.93;;
3189;SDS011;1606;51.946;10.558;2022-12-07T14:09:25;9.53;;;2.33;;
3189;SDS011;1606;51.946;10.558;2022-12-07T14:11:55;9.30;;;1.93;;
3189;SDS011;1606;51.946;10.558;2022-12-07T14:14:25;17.23;;;3.37;;
3189;SDS011;1606;51.946;10.558;2022-12-07T14:17:02;9.00;;;2.43;;
3189;SDS011;1606;51.946;10.558;2022-12-07T14:19:49;7.33;;;2.10;;
3189;SDS011;1606;51.946;10.558;2022-12-07T14:22:25;13.70;;;2.10;;
3189;SDS011;1606;51.946;10.558;2022-12-07T14:24:59;9.43;;;1.97;;
3189;SDS011;1606;51.946;10.558;2022-12-07T14:27:51;8.80;;;2.17;;
3189;SDS011;1606;51.946;10.558;2022-12-07T14:30:23;13.63;;;2.57;;
3189;SDS011;1606;51.946;10.558;2022-12-07T14:32:54;5.93;;;1.87;;
3189;SDS011;1606;51.946;10.558;2022-12-07T14:35:24;7.50;;;2.37;;
3189;SDS011;1606;51.946;10.558;2022-12-07T14:37:52;8.20;;;2.70;;
3189;SDS011;1606;51.946;10.558;2022-12-07T14:40:22;7.33;;;2.20;;
3189;SDS011;1606;51.946;10.558;2022-12-07T14:42:52;13.90;;;3.00;;
3189;SDS011;1606;51.946;10.558;2022-12-07T14:45:24;9.10;;;2.27;;
3189;SDS011;1606;51.946;10.558;2022-12-07T14:47:52;10.47;;;2.80;;
3189;SDS011;1606;51.946;10.558;2022-12-07T14:50:40;7.03;;;2.50;;
3189;SDS011;1606;51.946;10.558;2022-12-07T14:53:31;7.17;;;2.30;;
3189;SDS011;1606;51.946;10.558;2022-12-07T14:56:04;9.60;;;2.30;;
3189;SDS011;1606;51.946;10.558;2022-12-07T14:58:34;7.60;;;2.70;;
3189;SDS011;1606;51.946;10.558;2022-12-07T15:01:02;8.77;;;2.10;;
3189;SDS011;1606;51.946;10.558;2022-12-07T15:03:30;6.63;;;1.80;;
3189;SDS011;1606;51.946;10.558;2022-12-07T15:06:00;17.73;;;2.40;;
3189;SDS011;1606;51.946;10.558;2022-12-07T15:08:28;9.33;;;2.53;;
3189;SDS011;1606;51.946;10.558;2022-12-07T15:10:56;8.47;;;2.50;;
3189;SDS011;1606;51.946;10.558;2022-12-07T15:13:24;8.33;;;2.17;;
3189;SDS011;1606;51.946;10.558;2022-12-07T15:16:11;11.93;;;3.37;;
3189;SDS011;1606;51.946;10.558;2022-12-07T15:18:42;13.00;;;2.60;;
3189;SDS011;1606;51.946;10.558;2022-12-07T15:21:30;11.20;;;2.63;;
3189;SDS011;1606;51.946;10.558;2022-12-07T15:23:58;9.70;;;2.30;;
3189;SDS011;1606;51.946;10.558;2022-12-07T15:26:25;7.87;;;2.27;;
3189;SDS011;1606;51.946;10.558;2022-12-07T15:28:53;9.60;;;2.30;;
3189;SDS011;1606;51.946;10.558;2022-12-07T15:31:23;8.90;;;2.23;;
3189;SDS011;1606;51.946;10.558;2022-12-07T15:34:10;9.87;;;1.83;;
3189;SDS011;1606;51.946;10.558;2022-12-07T15:36:38;10.40;;;2.77;;
3189;SDS011;1606;51.946;10.558;2022-12-07T15:39:06;10.13;;;2.83;;
3189;SDS011;1606;51.946;10.558;2022-12-07T15:41:40;14.33;;;2.30;;
3189;SDS011;1606;51.946;10.558;2022-12-07T15:44:08;9.77;;;2.13;;
3189;SDS011;1606;51.946;10.558;2022-12-07T15:46:57;10.77;;;2.10;;
3189;SDS011;1606;51.946;10.558;2022-12-07T15:49:26;14.03;;;3.33;;
3189;SDS011;1606;51.946;10.558;2022-12-07T15:51:54;9.27;;;2.53;;